createdAt,value
2018-11-04T00:01:30.811Z,24.47
2018-11-04T00:03:58.668Z,24.00
2018-11-04T00:06:26.513Z,24.83
2018-11-04T00:08:54.377Z,24.67
2018-11-04T00:11:22.221Z,22.87
2018-11-04T00:13:50.064Z,22.73
2018-11-04T00:16:19.007Z,23.90
2018-11-04T00:18:46.867Z,24.17
2018-11-04T00:21:14.705Z,24.20
2018-11-04T00:23:42.540Z,22.03
2018-11-04T00:26:10.392Z,23.87
2018-11-04T00:28:38.235Z,23.07
2018-11-04T00:31:06.147Z,22.40
2018-11-04T00:33:33.993Z,22.73
2018-11-04T00:36:01.829Z,22.77
2018-11-04T00:38:29.695Z,22.47
2018-11-04T00:40:57.532Z,23.70
2018-11-04T00:43:25.372Z,22.73
2018-11-04T00:45:53.219Z,22.20
2018-11-04T00:48:21.134Z,24.07
2018-11-04T00:50:48.987Z,23.97
2018-11-04T00:53:16.841Z,23.63
2018-11-04T00:55:55.831Z,21.27
2018-11-04T00:58:24.879Z,23.77
2018-11-04T01:00:52.716Z,22.30
2018-11-04T01:03:20.597Z,22.83
2018-11-04T01:05:48.440Z,22.00
2018-11-04T01:08:16.291Z,22.27
2018-11-04T01:10:44.123Z,22.10
2018-11-04T01:13:11.966Z,22.73
2018-11-04T01:15:39.812Z,22.83
2018-11-04T01:18:07.639Z,22.90
2018-11-04T01:20:35.524Z,21.70
2018-11-04T01:23:03.379Z,23.77
2018-11-04T01:25:31.220Z,21.87
2018-11-04T01:27:59.068Z,22.10
2018-11-04T01:30:27.796Z,21.50
2018-11-04T01:32:56.379Z,20.67
2018-11-04T01:35:25.027Z,20.33
2018-11-04T01:37:52.939Z,21.57
2018-11-04T01:40:20.799Z,20.23
2018-11-04T01:42:48.648Z,20.00
2018-11-04T01:45:16.479Z,21.83
2018-11-04T01:47:44.356Z,19.80
2018-11-04T01:50:13.659Z,20.33
2018-11-04T01:52:42.371Z,20.30
2018-11-04T01:55:11.627Z,19.60
2018-11-04T01:57:40.171Z,19.03
2018-11-04T02:00:14.712Z,17.50
2018-11-04T02:02:43.827Z,18.47
2018-11-04T02:05:12.679Z,18.87
2018-11-04T02:07:41.203Z,17.80
2018-11-04T02:10:10.799Z,18.90
2018-11-04T02:12:39.366Z,19.63
2018-11-04T02:15:08.107Z,20.73
2018-11-04T02:17:36.521Z,21.33
2018-11-04T02:20:04.983Z,28.43
2018-11-04T02:22:33.631Z,40.53
2018-11-04T02:25:02.687Z,45.77
2018-11-04T02:27:31.460Z,49.77
2018-11-04T02:29:59.884Z,43.57
2018-11-04T02:32:28.142Z,43.70
2018-11-04T02:34:56.395Z,40.90
2018-11-04T02:37:24.849Z,39.33
2018-11-04T02:39:53.494Z,33.33
2018-11-04T02:42:22.125Z,25.63
2018-11-04T02:44:50.528Z,27.33
2018-11-04T02:47:18.763Z,25.30
2018-11-04T02:49:47.012Z,20.63
2018-11-04T02:52:15.476Z,19.87
2018-11-04T02:54:44.124Z,17.83
2018-11-04T02:57:12.832Z,17.13
2018-11-04T02:59:41.163Z,17.53
2018-11-04T03:02:09.520Z,15.90
2018-11-04T03:04:37.857Z,17.20
2018-11-04T03:07:06.286Z,17.50
2018-11-04T03:09:34.547Z,16.80
2018-11-04T03:12:03.044Z,17.97
2018-11-04T03:14:31.736Z,15.63
2018-11-04T03:16:59.624Z,17.40
2018-11-04T03:19:27.464Z,15.33
2018-11-04T03:21:55.332Z,16.40
2018-11-04T03:24:23.204Z,16.57
2018-11-04T03:26:51.083Z,16.50
2018-11-04T03:29:19.115Z,15.80
2018-11-04T03:31:46.964Z,15.37
2018-11-04T03:34:15.855Z,15.63
2018-11-04T03:36:43.696Z,14.30
2018-11-04T03:39:11.895Z,15.63
2018-11-04T03:41:40.156Z,14.10
2018-11-04T03:44:08.034Z,13.70
2018-11-04T03:46:36.624Z,15.70
2018-11-04T03:49:04.500Z,14.70
2018-11-04T03:51:32.360Z,13.87
2018-11-04T03:54:00.225Z,14.53
2018-11-04T03:56:28.109Z,14.77
2018-11-04T03:58:55.955Z,14.77
2018-11-04T04:01:23.860Z,13.73
2018-11-04T04:03:51.713Z,14.47
2018-11-04T04:06:19.604Z,14.37
2018-11-04T04:08:47.671Z,15.37
2018-11-04T04:11:15.507Z,14.87
2018-11-04T04:13:43.365Z,14.80
2018-11-04T04:16:12.027Z,14.33
2018-11-04T04:18:40.648Z,16.17
2018-11-04T04:21:10.204Z,15.47
2018-11-04T04:23:39.577Z,14.80
2018-11-04T04:26:08.460Z,16.70
2018-11-04T04:28:36.326Z,14.40
2018-11-04T04:31:04.331Z,15.20
2018-11-04T04:33:32.494Z,14.67
2018-11-04T04:36:00.412Z,14.50
2018-11-04T04:38:28.252Z,14.40
2018-11-04T04:40:56.206Z,14.73
2018-11-04T04:43:24.040Z,15.83
2018-11-04T04:45:52.513Z,15.53
2018-11-04T04:48:20.395Z,14.00
2018-11-04T04:50:48.236Z,13.80
2018-11-04T04:53:16.072Z,12.83
2018-11-04T04:55:43.956Z,14.43
2018-11-04T04:58:12.312Z,14.50
2018-11-04T05:00:40.576Z,13.97
2018-11-04T05:03:08.808Z,12.97
2018-11-04T05:05:37.315Z,13.63
2018-11-04T05:08:05.925Z,13.60
2018-11-04T05:10:34.559Z,14.00
2018-11-04T05:13:03.126Z,13.37
2018-11-04T05:15:31.413Z,13.33
2018-11-04T05:18:00.051Z,11.97
2018-11-04T05:20:28.634Z,15.40
2018-11-04T05:22:57.151Z,14.73
2018-11-04T05:25:25.839Z,14.30
2018-11-04T05:27:54.422Z,13.50
2018-11-04T05:30:23.072Z,14.33
2018-11-04T05:32:51.656Z,14.90
2018-11-04T05:35:20.168Z,13.93
2018-11-04T05:37:48.823Z,13.10
2018-11-04T05:40:17.186Z,13.73
2018-11-04T05:42:45.032Z,13.37
2018-11-04T05:45:12.892Z,12.57
2018-11-04T05:47:41.364Z,12.93
2018-11-04T05:50:10.163Z,12.57
2018-11-04T05:52:38.651Z,10.83
2018-11-04T05:55:07.649Z,12.27
2018-11-04T05:57:36.062Z,12.10
2018-11-04T06:00:04.374Z,13.23
2018-11-04T06:02:33.035Z,13.80
2018-11-04T06:05:01.617Z,12.70
2018-11-04T06:07:30.020Z,12.50
2018-11-04T06:09:58.322Z,12.33
2018-11-04T06:12:26.930Z,12.67
2018-11-04T06:14:55.599Z,13.20
2018-11-04T06:17:24.206Z,13.20
2018-11-04T06:19:52.844Z,14.30
2018-11-04T06:22:20.704Z,13.00
2018-11-04T06:24:48.556Z,11.83
2018-11-04T06:27:16.400Z,14.50
2018-11-04T06:29:44.240Z,13.63
2018-11-04T06:32:12.171Z,13.60
2018-11-04T06:34:40.176Z,14.53
2018-11-04T06:37:08.012Z,13.80
2018-11-04T06:39:35.861Z,15.37
2018-11-04T06:42:03.868Z,14.30
2018-11-04T06:44:32.019Z,14.30
2018-11-04T06:46:59.954Z,14.37
2018-11-04T06:49:27.787Z,12.53
2018-11-04T06:51:55.631Z,13.50
2018-11-04T06:54:23.556Z,12.63
2018-11-04T06:56:51.398Z,13.77
2018-11-04T06:59:19.263Z,13.87
2018-11-04T07:01:47.898Z,14.20
2018-11-04T07:04:23.220Z,13.07
2018-11-04T07:06:51.823Z,13.13
2018-11-04T07:09:20.466Z,13.87
2018-11-04T07:11:49.382Z,13.40
2018-11-04T07:14:19.123Z,14.13
2018-11-04T07:16:47.519Z,13.80
2018-11-04T07:19:16.275Z,13.47
2018-11-04T07:21:44.814Z,13.57
2018-11-04T07:24:13.471Z,13.93
2018-11-04T07:26:42.136Z,13.43
2018-11-04T07:29:10.616Z,13.47
2018-11-04T07:31:39.170Z,13.97
2018-11-04T07:34:07.989Z,12.67
2018-11-04T07:36:36.454Z,14.33
2018-11-04T07:39:06.455Z,14.10
2018-11-04T07:41:35.098Z,14.80
2018-11-04T07:44:03.545Z,14.50
2018-11-04T07:46:32.196Z,14.37
2018-11-04T07:49:00.813Z,14.57
2018-11-04T07:51:29.472Z,14.63
2018-11-04T07:53:58.092Z,14.53
2018-11-04T07:56:26.742Z,14.17
2018-11-04T07:59:57.677Z,14.63
2018-11-04T08:02:26.131Z,14.23
2018-11-04T08:04:54.754Z,14.50
2018-11-04T08:07:23.179Z,15.07
2018-11-04T08:09:51.600Z,17.90
2018-11-04T08:12:19.851Z,15.93
2018-11-04T08:14:47.673Z,17.60
2018-11-04T08:17:16.219Z,16.73
2018-11-04T08:19:44.803Z,18.10
2018-11-04T08:22:12.640Z,18.67
2018-11-04T08:24:40.480Z,18.20
2018-11-04T08:27:08.331Z,17.70
2018-11-04T08:29:36.196Z,18.83
2018-11-04T08:32:04.648Z,18.70
2018-11-04T08:34:33.088Z,18.20
2018-11-04T08:37:01.700Z,18.00
2018-11-04T08:39:30.152Z,17.23
2018-11-04T08:41:57.978Z,18.43
2018-11-04T08:44:25.810Z,17.33
2018-11-04T08:46:53.907Z,17.00
2018-11-04T08:49:21.791Z,17.87
2018-11-04T08:51:49.745Z,18.27
2018-11-04T08:54:17.592Z,18.40
2018-11-04T08:56:45.475Z,18.00
2018-11-04T08:59:13.300Z,18.37
2018-11-04T09:01:41.134Z,17.77
2018-11-04T09:04:08.997Z,16.67
2018-11-04T09:06:36.864Z,17.70
2018-11-04T09:09:06.228Z,17.73
2018-11-04T09:11:34.125Z,16.73
2018-11-04T09:14:02.054Z,16.03
2018-11-04T09:16:30.012Z,15.43
2018-11-04T09:18:58.530Z,16.90
2018-11-04T09:21:27.226Z,17.93
2018-11-04T09:23:55.869Z,17.97
2018-11-04T09:26:23.787Z,18.67
2018-11-04T09:28:52.325Z,18.80
2018-11-04T09:31:20.214Z,18.53
2018-11-04T09:33:48.055Z,17.90
2018-11-04T09:36:16.788Z,16.93
2018-11-04T09:38:45.307Z,18.03
2018-11-04T09:41:13.992Z,18.60
2018-11-04T09:43:42.523Z,17.57
2018-11-04T09:46:11.163Z,18.37
2018-11-04T09:48:39.051Z,18.90
2018-11-04T09:51:06.899Z,17.97
2018-11-04T09:53:34.873Z,19.93
2018-11-04T09:56:03.555Z,19.47
2018-11-04T09:58:31.452Z,18.77
2018-11-04T10:00:59.338Z,18.37
2018-11-04T10:03:27.241Z,19.37
2018-11-04T10:05:55.733Z,18.63
2018-11-04T10:08:24.367Z,18.83
2018-11-04T10:10:52.806Z,19.63
2018-11-04T10:13:21.281Z,19.63
2018-11-04T10:15:49.669Z,19.03
2018-11-04T10:18:17.499Z,20.70
2018-11-04T10:20:46.427Z,20.40
2018-11-04T10:23:14.396Z,20.07
2018-11-04T10:25:42.366Z,20.00
2018-11-04T10:28:10.211Z,20.73
2018-11-04T10:30:38.041Z,20.40
2018-11-04T10:33:05.918Z,21.10
2018-11-04T10:35:34.257Z,21.43
2018-11-04T10:38:02.672Z,20.50
2018-11-04T10:40:31.145Z,20.27
2018-11-04T10:42:59.782Z,20.93
2018-11-04T10:45:28.203Z,21.13
2018-11-04T10:47:56.059Z,20.37
2018-11-04T10:50:23.909Z,22.77
2018-11-04T10:52:51.745Z,22.83
2018-11-04T10:55:20.402Z,23.20
2018-11-04T10:57:49.272Z,22.97
2018-11-04T11:00:22.322Z,23.03
2018-11-04T11:02:50.172Z,22.80
2018-11-04T11:05:18.018Z,22.87
2018-11-04T11:07:46.681Z,23.80
2018-11-04T11:10:14.515Z,21.53
2018-11-04T11:12:43.024Z,24.10
2018-11-04T11:15:11.992Z,22.80
2018-11-04T11:17:40.690Z,23.50
2018-11-04T11:20:09.703Z,23.63
2018-11-04T11:22:37.942Z,24.10
2018-11-04T11:25:06.639Z,22.37
2018-11-04T11:27:35.041Z,22.77
2018-11-04T11:30:03.642Z,22.97
2018-11-04T11:32:32.121Z,24.27
2018-11-04T11:35:00.889Z,23.13
2018-11-04T11:37:29.620Z,23.17
2018-11-04T11:39:58.247Z,22.97
2018-11-04T11:42:26.876Z,23.10
2018-11-04T11:44:55.513Z,22.17
2018-11-04T11:47:23.952Z,22.40
2018-11-04T11:49:52.568Z,23.13
2018-11-04T11:52:21.249Z,25.77
2018-11-04T11:54:49.133Z,24.70
2018-11-04T11:57:17.224Z,22.90
2018-11-04T11:59:45.723Z,23.90
2018-11-04T12:02:13.782Z,22.47
2018-11-04T12:04:42.197Z,24.40
2018-11-04T12:07:10.054Z,24.40
2018-11-04T12:09:38.488Z,25.77
2018-11-04T12:12:06.956Z,25.33
2018-11-04T12:14:34.793Z,24.57
2018-11-04T12:17:02.632Z,24.10
2018-11-04T12:19:31.093Z,22.60
2018-11-04T12:21:59.703Z,23.20
2018-11-04T12:24:28.176Z,24.43
2018-11-04T12:26:56.026Z,23.90
2018-11-04T12:29:23.916Z,24.13
2018-11-04T12:31:52.291Z,25.47
2018-11-04T12:34:20.919Z,26.30
2018-11-04T12:36:49.382Z,23.07
2018-11-04T12:39:17.795Z,24.23
2018-11-04T12:41:45.813Z,23.90
2018-11-04T12:44:14.305Z,24.43
2018-11-04T12:46:42.148Z,25.23
2018-11-04T12:49:10.798Z,24.13
2018-11-04T12:51:38.640Z,24.80
2018-11-04T12:54:06.627Z,24.80
2018-11-04T12:56:34.482Z,24.30
2018-11-04T12:59:02.312Z,25.00
2018-11-04T13:01:30.160Z,23.90
2018-11-04T13:03:58.029Z,25.17
2018-11-04T13:06:26.115Z,24.80
2018-11-04T13:08:54.583Z,25.33
2018-11-04T13:11:23.326Z,23.87
2018-11-04T13:13:51.460Z,24.13
2018-11-04T13:16:20.109Z,24.03
2018-11-04T13:18:48.160Z,23.93
2018-11-04T13:21:16.844Z,23.17
2018-11-04T13:23:45.399Z,24.10
2018-11-04T13:26:13.816Z,24.40
2018-11-04T13:28:42.340Z,25.03
2018-11-04T13:31:10.940Z,23.27
2018-11-04T13:33:39.568Z,25.87
2018-11-04T13:36:08.098Z,24.83
2018-11-04T13:38:36.708Z,23.80
2018-11-04T13:41:05.367Z,24.17
2018-11-04T13:43:33.730Z,25.60
2018-11-04T13:46:02.219Z,25.63
2018-11-04T13:48:30.152Z,24.47
2018-11-04T13:50:58.013Z,24.93
2018-11-04T13:53:26.672Z,22.80
2018-11-04T13:55:55.143Z,24.17
2018-11-04T13:58:23.107Z,23.43
2018-11-04T14:00:51.633Z,23.73
2018-11-04T14:03:20.292Z,23.53
2018-11-04T14:05:48.694Z,23.73
2018-11-04T14:08:17.346Z,24.50
2018-11-04T14:10:46.060Z,24.70
2018-11-04T14:13:14.666Z,24.73
2018-11-04T14:15:42.986Z,23.70
2018-11-04T14:18:11.469Z,24.83
2018-11-04T14:20:39.699Z,22.23
2018-11-04T14:23:07.951Z,25.27
2018-11-04T14:25:36.264Z,23.60
2018-11-04T14:28:04.851Z,23.10
2018-11-04T14:30:33.278Z,23.87
2018-11-04T14:33:01.542Z,24.30
2018-11-04T14:35:29.976Z,23.50
2018-11-04T14:37:58.783Z,22.13
2018-11-04T14:40:27.448Z,23.03
2018-11-04T14:42:56.001Z,24.43
2018-11-04T14:45:24.733Z,24.00
2018-11-04T14:47:53.364Z,22.63
2018-11-04T14:50:21.330Z,24.03
2018-11-04T14:52:49.578Z,23.33
2018-11-04T14:55:17.450Z,23.97
2018-11-04T14:57:45.323Z,24.27
2018-11-04T15:00:14.472Z,24.10
2018-11-04T15:02:42.599Z,23.70
2018-11-04T15:05:11.157Z,23.00
2018-11-04T15:07:39.633Z,25.00
2018-11-04T15:10:08.666Z,24.70
2018-11-04T15:12:37.219Z,24.07
2018-11-04T15:15:06.324Z,22.83
2018-11-04T15:17:34.839Z,23.90
2018-11-04T15:20:03.502Z,25.30
2018-11-04T15:22:32.096Z,24.57
2018-11-04T15:24:59.986Z,23.10
2018-11-04T15:27:28.415Z,23.80
2018-11-04T15:29:57.205Z,23.33
2018-11-04T15:32:25.683Z,22.87
2018-11-04T15:34:53.627Z,22.93
2018-11-04T15:37:21.411Z,24.83
2018-11-04T15:39:49.394Z,24.60
2018-11-04T15:42:18.090Z,23.57
2018-11-04T15:44:46.132Z,24.90
2018-11-04T15:47:15.091Z,24.37
2018-11-04T15:49:43.020Z,22.70
2018-11-04T15:52:11.660Z,23.67
2018-11-04T15:54:40.286Z,22.97
2018-11-04T15:57:14.189Z,23.77
2018-11-04T15:59:42.617Z,23.30
2018-11-04T16:02:11.288Z,23.67
2018-11-04T16:04:44.539Z,23.77
2018-11-04T16:07:08.557Z,23.90
2018-11-04T16:09:37.804Z,25.03
2018-11-04T16:12:06.417Z,23.73
2018-11-04T16:14:35.042Z,22.97
2018-11-04T16:17:03.688Z,23.67
2018-11-04T16:19:31.691Z,24.23
2018-11-04T16:22:00.475Z,24.03
2018-11-04T16:24:29.120Z,24.00
2018-11-04T16:26:57.691Z,26.90
2018-11-04T16:29:25.528Z,24.97
2018-11-04T16:31:53.384Z,25.60
2018-11-04T16:34:21.264Z,25.20
2018-11-04T16:36:49.133Z,25.63
2018-11-04T16:39:17.692Z,25.77
2018-11-04T16:41:46.275Z,26.37
2018-11-04T16:44:14.859Z,26.93
2018-11-04T16:46:43.392Z,26.20
2018-11-04T16:49:11.792Z,27.87
2018-11-04T16:51:39.682Z,28.50
2018-11-04T16:54:08.529Z,28.33
2018-11-04T16:56:37.403Z,26.07
2018-11-04T16:59:06.172Z,27.67
2018-11-04T17:01:34.603Z,27.63
2018-11-04T17:04:03.145Z,28.63
2018-11-04T17:06:31.937Z,27.00
2018-11-04T17:09:00.307Z,27.83
2018-11-04T17:11:28.642Z,26.50
2018-11-04T17:13:56.476Z,27.53
2018-11-04T17:16:24.664Z,25.33
2018-11-04T17:18:53.107Z,26.30
2018-11-04T17:21:21.748Z,26.53
2018-11-04T17:23:50.299Z,26.30
2018-11-04T17:26:18.962Z,26.03
2018-11-04T17:28:47.602Z,29.50
2018-11-04T17:31:16.118Z,26.53
2018-11-04T17:33:43.955Z,26.00
2018-11-04T17:36:11.972Z,27.10
2018-11-04T17:38:40.255Z,27.03
2018-11-04T17:41:09.149Z,27.27
2018-11-04T17:43:37.736Z,25.80
2018-11-04T17:46:06.167Z,27.50
2018-11-04T17:48:34.546Z,27.77
2018-11-04T17:51:02.658Z,26.90
2018-11-04T17:53:30.528Z,27.77
2018-11-04T17:55:58.445Z,29.23
2018-11-04T17:58:26.296Z,27.53
2018-11-04T18:00:54.135Z,27.60
2018-11-04T18:03:21.977Z,28.27
2018-11-04T18:05:49.804Z,28.43
2018-11-04T18:08:17.659Z,26.77
2018-11-04T18:10:46.228Z,27.93
2018-11-04T18:13:14.882Z,29.50
2018-11-04T18:15:43.509Z,28.47
2018-11-04T18:18:11.916Z,26.57
2018-11-04T18:20:39.809Z,28.73
2018-11-04T18:23:07.660Z,27.30
2018-11-04T18:25:35.481Z,27.53
2018-11-04T18:28:04.291Z,29.90
2018-11-04T18:30:32.783Z,28.00
2018-11-04T18:33:00.630Z,28.47
2018-11-04T18:35:28.593Z,27.93
2018-11-04T18:37:56.428Z,27.53
2018-11-04T18:40:24.327Z,28.43
2018-11-04T18:42:52.175Z,27.80
2018-11-04T18:45:20.156Z,27.87
2018-11-04T18:47:47.991Z,27.17
2018-11-04T18:50:17.161Z,27.23
2018-11-04T18:52:45.478Z,26.20
2018-11-04T18:55:13.656Z,24.77
2018-11-04T18:57:42.456Z,26.77
2018-11-04T19:00:13.091Z,27.07
2018-11-04T19:02:40.926Z,27.33
2018-11-04T19:05:09.506Z,28.80
2018-11-04T19:07:37.663Z,25.73
2018-11-04T19:10:06.280Z,26.17
2018-11-04T19:12:34.172Z,28.17
2018-11-04T19:15:02.096Z,27.93
2018-11-04T19:17:30.562Z,26.73
2018-11-04T19:19:59.004Z,27.20
2018-11-04T19:22:26.851Z,27.23
2018-11-04T19:24:54.705Z,28.63
2018-11-04T19:27:22.571Z,28.50
2018-11-04T19:29:51.183Z,25.27
2018-11-04T19:32:19.884Z,26.43
2018-11-04T19:34:48.459Z,26.20
2018-11-04T19:37:16.532Z,27.03
2018-11-04T19:39:45.023Z,27.77
2018-11-04T19:42:12.902Z,25.43
2018-11-04T19:44:41.439Z,25.77
2018-11-04T19:47:09.878Z,26.27
2018-11-04T19:49:38.513Z,26.63
2018-11-04T19:52:07.149Z,27.23
2018-11-04T19:54:35.029Z,27.37
2018-11-04T19:57:02.882Z,26.87
2018-11-04T19:59:30.722Z,24.27
2018-11-04T20:01:58.579Z,26.37
2018-11-04T20:04:26.455Z,25.90
2018-11-04T20:06:54.295Z,26.43
2018-11-04T20:09:22.135Z,25.73
2018-11-04T20:11:49.976Z,27.70
2018-11-04T20:14:19.557Z,27.63
2018-11-04T20:16:48.582Z,26.80
2018-11-04T20:19:21.648Z,27.30
2018-11-04T20:21:49.788Z,26.87
2018-11-04T20:24:22.868Z,29.53
2018-11-04T20:26:50.990Z,27.53
2018-11-04T20:29:18.876Z,28.20
2018-11-04T20:31:51.771Z,27.33
2018-11-04T20:34:20.110Z,28.27
2018-11-04T20:36:48.743Z,27.27
2018-11-04T20:39:22.187Z,27.13
2018-11-04T20:41:50.733Z,25.67
2018-11-04T20:44:19.104Z,25.90
2018-11-04T20:46:47.786Z,26.43
2018-11-04T20:49:21.539Z,26.17
2018-11-04T20:51:50.202Z,25.27
2018-11-04T20:54:18.798Z,25.70
2018-11-04T20:56:51.866Z,24.80
2018-11-04T20:59:19.707Z,25.37
2018-11-04T21:01:47.598Z,25.97
2018-11-04T21:04:15.615Z,25.47
2018-11-04T21:06:43.452Z,27.33
2018-11-04T21:09:12.516Z,25.37
2018-11-04T21:11:40.422Z,26.47
2018-11-04T21:14:08.280Z,25.90
2018-11-04T21:16:37.019Z,25.77
2018-11-04T21:19:05.323Z,25.60
2018-11-04T21:21:34.013Z,26.77
2018-11-04T21:24:02.415Z,26.23
2018-11-04T21:26:30.842Z,28.53
2018-11-04T21:28:59.417Z,28.53
2018-11-04T21:31:27.726Z,25.80
2018-11-04T21:33:56.391Z,27.03
2018-11-04T21:36:25.696Z,27.47
2018-11-04T21:38:54.019Z,26.43
2018-11-04T21:41:22.237Z,25.93
2018-11-04T21:43:50.287Z,27.60
2018-11-04T21:46:18.175Z,29.40
2018-11-04T21:48:46.613Z,28.10
2018-11-04T21:51:14.633Z,30.33
2018-11-04T21:53:42.484Z,28.70
2018-11-04T21:56:10.795Z,32.70
2018-11-04T21:58:38.652Z,32.80
2018-11-04T22:01:07.619Z,33.00
2018-11-04T22:03:35.947Z,33.73
2018-11-04T22:06:03.781Z,32.60
2018-11-04T22:08:31.666Z,34.57
2018-11-04T22:10:59.500Z,34.20
2018-11-04T22:13:27.407Z,35.27
2018-11-04T22:15:55.966Z,34.10
2018-11-04T22:18:23.847Z,34.60
2018-11-04T22:20:51.739Z,35.97
2018-11-04T22:23:19.609Z,33.60
2018-11-04T22:25:47.471Z,31.10
2018-11-04T22:28:15.335Z,32.60
2018-11-04T22:30:43.247Z,31.90
2018-11-04T22:33:11.123Z,33.40
2018-11-04T22:35:38.974Z,31.70
2018-11-04T22:38:06.904Z,30.83
2018-11-04T22:40:34.751Z,30.73
2018-11-04T22:43:02.626Z,30.67
2018-11-04T22:45:31.084Z,30.20
2018-11-04T22:47:59.564Z,33.17
2018-11-04T22:50:28.209Z,30.37
2018-11-04T22:52:56.849Z,29.77
2018-11-04T22:55:25.252Z,28.93
2018-11-04T22:57:53.689Z,29.90
2018-11-04T23:00:26.840Z,30.07
2018-11-04T23:02:54.695Z,29.23
2018-11-04T23:05:28.068Z,28.20
2018-11-04T23:07:55.975Z,30.20
2018-11-04T23:10:23.843Z,30.10
2018-11-04T23:12:52.412Z,31.10
2018-11-04T23:15:21.039Z,30.70
2018-11-04T23:17:49.172Z,30.90
2018-11-04T23:20:17.011Z,29.17
2018-11-04T23:22:45.572Z,28.47
2018-11-04T23:25:14.690Z,30.97
2018-11-04T23:27:44.000Z,30.67
2018-11-04T23:30:14.212Z,29.30
2018-11-04T23:32:42.892Z,29.00
2018-11-04T23:35:12.034Z,30.13
2018-11-04T23:37:40.147Z,29.63
2018-11-04T23:40:08.601Z,27.53
2018-11-04T23:42:36.722Z,29.23
2018-11-04T23:45:04.683Z,29.17
2018-11-04T23:47:32.572Z,29.57
2018-11-04T23:50:00.980Z,28.70
2018-11-04T23:52:28.830Z,29.20
2018-11-04T23:54:56.692Z,29.03
2018-11-04T23:57:24.527Z,27.90
2018-11-04T23:59:52.376Z,30.53
